Flight Information

DEPARTURE
DENVER, CO
Elevation:
5884
Runways:
17L/35R - 10001x100 - ASPH-G
17R/35L - 7001x75 - ASPH-G
10/28 - 4800x75 - ASPH-G
Active PE Departure:
17L - 17R
Current PE ATIS:
E
Altimeter:
30.41
Remarks:
ATIS:
120.3 303-799-6722
Clearance Delivery:
128.6
Ground:
121.8
Tower:
CENTENNIAL TOWER 118.9
DESTINATION
,
Elevation:
TPA:
1000 (est.)


6083.4 NM80° True-11° Var69° HDG

Flight Plan:
(click to file on line)

1. Type
2. Aircraft Identification
3. Aircraft Type / Special Equipment
4. True Airspeed
kts
5. Departure Airport
(ICAO code)
6. Arriving Airport
(ICAO code)
7. Cruising Altitude
ft
8. Alternate Airport
(ICAO code)
9. Route of Flight
10. Remarks


00:00:00 Departure ATIS: Destination ATIS:

Clearance Limit:
Route:
Altitude: Expect in minutes
Frequency:
Transponder: (7500 Hijack / 7600 Lost Comms / 7700 Emergency)


KAPA 010453Z 19004KT 10SM FEW130 FEW220 11/M01 A3041 RMK AO2 SLP259 T01111006
Time: 2020-10-01T04:53:00Z
1601529622
Winds: 190 @ 4 kts
Visibility: 10.0 sm
Clouds (AGL): FEW 13000
FEW 22000
Temperature: 11.1 C
Dew Point: -0.6 C
Pressure: 30.410433 in Hgbr


Notes:

Data extracted from FAA Digital Chart Supplement. Effective: 0901Z Thursday, Sep 10, 2020 to 0901Z Thursday, Nov 5, 2020
Current ATIS data is provided courtisy of PilotEdge.